createdAt,value
2017-11-30T00:00:49.905Z,38.10
2017-11-30T00:01:49.877Z,39.40
2017-11-30T00:02:49.925Z,37.20
2017-11-30T00:03:49.838Z,38.20
2017-11-30T00:04:49.813Z,38.30
2017-11-30T00:05:49.792Z,38.70
2017-11-30T00:06:49.760Z,37.70
2017-11-30T00:07:49.736Z,37.10
2017-11-30T00:08:49.725Z,38.50
2017-11-30T00:09:49.695Z,37.00
2017-11-30T00:10:49.665Z,37.90
2017-11-30T00:11:49.641Z,38.50
2017-11-30T00:12:49.617Z,38.30
2017-11-30T00:13:49.591Z,37.80
2017-11-30T00:14:49.578Z,38.00
2017-11-30T00:15:49.550Z,35.70
2017-11-30T00:16:49.522Z,37.70
2017-11-30T00:17:49.506Z,38.60
2017-11-30T00:18:49.490Z,37.60
2017-11-30T00:19:49.451Z,37.70
2017-11-30T00:20:49.429Z,37.50
2017-11-30T00:21:49.404Z,37.30
2017-11-30T00:22:49.382Z,37.30
2017-11-30T00:23:49.356Z,36.50
2017-11-30T00:24:49.335Z,37.50
2017-11-30T00:25:49.312Z,37.80
2017-11-30T00:26:49.286Z,37.50
2017-11-30T00:27:49.261Z,37.60
2017-11-30T00:28:49.253Z,38.50
2017-11-30T00:29:49.215Z,37.80
2017-11-30T00:30:49.193Z,37.20
2017-11-30T00:31:49.175Z,38.80
2017-11-30T00:32:49.150Z,38.10
2017-11-30T00:33:49.130Z,38.30
2017-11-30T00:34:49.093Z,37.50
2017-11-30T00:35:49.075Z,37.50
2017-11-30T00:36:49.066Z,37.50
2017-11-30T00:37:49.026Z,37.70
2017-11-30T00:38:49.004Z,36.60
2017-11-30T00:39:48.983Z,38.40
2017-11-30T00:40:48.982Z,38.70
2017-11-30T00:41:48.929Z,39.00
2017-11-30T00:42:48.911Z,38.80
2017-11-30T00:43:48.889Z,37.60
2017-11-30T00:44:48.858Z,38.10
2017-11-30T00:45:48.835Z,38.60
2017-11-30T00:46:48.811Z,39.50
2017-11-30T00:47:48.791Z,37.10
2017-11-30T00:48:48.771Z,37.50
2017-11-30T00:49:48.736Z,38.20
2017-11-30T00:50:48.717Z,38.40
2017-11-30T00:51:48.759Z,38.10
2017-11-30T00:52:48.667Z,38.90
2017-11-30T00:53:48.703Z,37.10
2017-11-30T00:54:48.646Z,37.70
2017-11-30T00:55:48.629Z,38.80
2017-11-30T00:56:48.572Z,37.10
2017-11-30T00:57:48.561Z,36.80
2017-11-30T00:58:48.535Z,38.10
2017-11-30T00:59:48.499Z,39.00
2017-11-30T01:00:48.476Z,36.90
2017-11-30T01:01:48.466Z,38.10
2017-11-30T01:02:48.429Z,37.20
2017-11-30T01:03:48.513Z,37.20
2017-11-30T01:04:48.380Z,37.50
2017-11-30T01:05:48.366Z,38.80
2017-11-30T01:06:48.342Z,37.70
2017-11-30T01:07:48.378Z,37.90
2017-11-30T01:08:48.285Z,37.20
2017-11-30T01:09:48.264Z,36.60
2017-11-30T01:10:48.236Z,36.90
2017-11-30T01:11:48.214Z,37.60
2017-11-30T01:12:48.188Z,36.90
2017-11-30T01:13:48.174Z,38.30
2017-11-30T01:14:48.147Z,36.90
2017-11-30T01:15:48.118Z,38.80
2017-11-30T01:16:48.094Z,38.40
2017-11-30T01:17:48.077Z,37.20
2017-11-30T01:18:48.050Z,37.80
2017-11-30T01:19:48.023Z,36.70
2017-11-30T01:20:48.007Z,38.10
2017-11-30T01:21:47.976Z,37.00
2017-11-30T01:22:47.954Z,37.70
2017-11-30T01:23:47.927Z,38.30
2017-11-30T01:24:47.908Z,37.40
2017-11-30T01:25:47.882Z,36.50
2017-11-30T01:26:47.858Z,37.40
2017-11-30T01:27:47.865Z,37.50
2017-11-30T01:28:47.812Z,36.90
2017-11-30T01:29:47.788Z,36.90
2017-11-30T01:30:47.764Z,36.20
2017-11-30T01:31:47.745Z,38.20
2017-11-30T01:32:47.714Z,38.60
2017-11-30T01:33:47.693Z,37.20
2017-11-30T01:34:47.669Z,35.40
2017-11-30T01:35:47.644Z,38.10
2017-11-30T01:36:47.622Z,36.00
2017-11-30T01:37:47.596Z,36.70
2017-11-30T01:38:47.573Z,37.30
2017-11-30T01:39:47.558Z,36.30
2017-11-30T01:40:47.527Z,37.30
2017-11-30T01:41:47.503Z,37.10
2017-11-30T01:42:47.480Z,38.00
2017-11-30T01:43:47.459Z,37.30
2017-11-30T01:44:47.429Z,37.70
2017-11-30T01:45:47.407Z,38.30
2017-11-30T01:46:47.387Z,37.00
2017-11-30T01:47:47.358Z,36.80
2017-11-30T01:48:47.360Z,37.10
2017-11-30T01:49:47.311Z,36.90
2017-11-30T01:50:47.291Z,34.80
2017-11-30T01:51:47.279Z,36.50
2017-11-30T01:52:47.241Z,37.60
2017-11-30T01:53:47.218Z,37.80
2017-11-30T01:54:47.192Z,36.90
2017-11-30T01:55:47.168Z,36.30
2017-11-30T01:56:47.148Z,35.90
2017-11-30T01:57:47.123Z,37.30
2017-11-30T01:58:47.158Z,37.20
2017-11-30T01:59:47.077Z,37.20
2017-11-30T02:00:47.048Z,38.20
2017-11-30T02:01:47.026Z,36.70
2017-11-30T02:02:47.017Z,37.60
2017-11-30T02:03:46.978Z,38.50
2017-11-30T02:04:46.963Z,37.90
2017-11-30T02:05:46.949Z,36.50
2017-11-30T02:06:46.910Z,36.80
2017-11-30T02:07:46.888Z,38.00
2017-11-30T02:08:46.948Z,36.70
2017-11-30T02:09:46.838Z,38.60
2017-11-30T02:10:46.826Z,36.70
2017-11-30T02:11:46.790Z,38.30
2017-11-30T02:12:46.777Z,38.40
2017-11-30T02:13:46.749Z,36.00
2017-11-30T02:14:46.721Z,37.00
2017-11-30T02:15:46.695Z,39.10
2017-11-30T02:16:46.681Z,38.40
2017-11-30T02:17:46.649Z,38.00
2017-11-30T02:18:46.640Z,37.50
2017-11-30T02:19:46.599Z,38.50
2017-11-30T02:20:46.577Z,37.70
2017-11-30T02:21:46.556Z,37.00
2017-11-30T02:22:46.529Z,38.10
2017-11-30T02:23:46.510Z,37.30
2017-11-30T02:24:46.485Z,38.60
2017-11-30T02:25:46.459Z,39.00
2017-11-30T02:26:46.437Z,37.60
2017-11-30T02:27:46.416Z,38.40
2017-11-30T02:28:46.386Z,37.20
2017-11-30T02:29:46.366Z,38.30
2017-11-30T02:30:46.342Z,38.40
2017-11-30T02:31:46.324Z,37.20
2017-11-30T02:32:46.300Z,37.80
2017-11-30T02:33:46.272Z,37.20
2017-11-30T02:34:46.246Z,37.10
2017-11-30T02:35:46.221Z,37.20
2017-11-30T02:36:46.197Z,38.90
2017-11-30T02:37:46.174Z,38.20
2017-11-30T02:38:46.151Z,38.40
2017-11-30T02:39:46.123Z,38.00
2017-11-30T02:40:46.101Z,38.50
2017-11-30T02:41:46.082Z,37.60
2017-11-30T02:42:46.056Z,36.40
2017-11-30T02:43:46.030Z,38.50
2017-11-30T02:44:46.012Z,38.60
2017-11-30T02:45:45.993Z,37.50
2017-11-30T02:46:45.963Z,37.50
2017-11-30T02:47:45.935Z,39.00
2017-11-30T02:48:45.915Z,37.90
2017-11-30T02:49:45.889Z,39.50
2017-11-30T02:50:45.864Z,39.00
2017-11-30T02:51:45.841Z,37.30
2017-11-30T02:52:45.821Z,38.00
2017-11-30T02:53:45.806Z,38.80
2017-11-30T02:54:45.769Z,37.80
2017-11-30T02:55:45.746Z,38.20
2017-11-30T02:56:45.723Z,37.20
2017-11-30T02:57:45.699Z,37.70
2017-11-30T02:58:45.682Z,38.00
2017-11-30T02:59:45.653Z,39.00
2017-11-30T03:00:45.629Z,38.60
2017-11-30T03:01:45.608Z,39.70
2017-11-30T03:02:45.583Z,38.50
2017-11-30T03:03:45.561Z,37.90
2017-11-30T03:04:45.534Z,37.10
2017-11-30T03:05:45.509Z,37.50
2017-11-30T03:06:45.489Z,36.70
2017-11-30T03:07:45.487Z,39.30
2017-11-30T03:08:45.437Z,38.70
2017-11-30T03:09:45.439Z,38.80
2017-11-30T03:10:45.392Z,38.80
2017-11-30T03:11:45.368Z,39.00
2017-11-30T03:12:45.343Z,37.90
2017-11-30T03:13:45.399Z,39.70
2017-11-30T03:14:45.297Z,38.80
2017-11-30T03:15:45.270Z,37.70
2017-11-30T03:16:45.251Z,37.50
2017-11-30T03:17:45.230Z,38.30
2017-11-30T03:18:45.200Z,38.50
2017-11-30T03:19:45.219Z,39.10
2017-11-30T03:20:45.157Z,37.70
2017-11-30T03:21:45.135Z,38.70
2017-11-30T03:22:45.108Z,38.90
2017-11-30T03:23:45.101Z,38.30
2017-11-30T03:24:45.059Z,38.80
2017-11-30T03:25:45.040Z,39.10
2017-11-30T03:26:45.012Z,38.30
2017-11-30T03:27:44.996Z,39.10
2017-11-30T03:28:44.964Z,38.00
2017-11-30T03:29:44.939Z,39.60
2017-11-30T03:30:44.915Z,38.90
2017-11-30T03:31:44.893Z,38.70
2017-11-30T03:32:44.867Z,39.60
2017-11-30T03:33:44.843Z,40.20
2017-11-30T03:34:44.822Z,41.10
2017-11-30T03:35:44.795Z,40.00
2017-11-30T03:36:44.771Z,40.80
2017-11-30T03:37:44.753Z,40.50
2017-11-30T03:38:44.731Z,41.50
2017-11-30T03:39:44.698Z,40.10
2017-11-30T03:40:44.682Z,42.00
2017-11-30T03:41:44.661Z,42.80
2017-11-30T03:42:44.628Z,43.20
2017-11-30T03:43:44.602Z,42.90
2017-11-30T03:44:44.582Z,44.40
2017-11-30T03:45:44.558Z,42.90
2017-11-30T03:46:44.531Z,43.70
2017-11-30T03:47:44.506Z,43.50
2017-11-30T03:48:44.483Z,43.80
2017-11-30T03:49:44.461Z,45.00
2017-11-30T03:50:44.436Z,44.50
2017-11-30T03:51:44.413Z,44.70
2017-11-30T03:52:44.386Z,44.80
2017-11-30T03:53:44.362Z,45.00
2017-11-30T03:54:44.339Z,43.50
2017-11-30T03:55:44.315Z,43.00
2017-11-30T03:56:44.289Z,43.20
2017-11-30T03:57:44.269Z,43.10
2017-11-30T03:58:44.243Z,44.80
2017-11-30T03:59:44.221Z,43.30
2017-11-30T04:00:44.196Z,42.80
2017-11-30T04:01:44.173Z,42.10
2017-11-30T04:02:44.151Z,45.20
2017-11-30T04:03:44.123Z,42.90
2017-11-30T04:04:44.105Z,42.20
2017-11-30T04:05:44.083Z,43.90
2017-11-30T04:06:44.052Z,43.50
2017-11-30T04:07:44.040Z,41.40
2017-11-30T04:08:44.004Z,43.60
2017-11-30T04:09:43.978Z,44.30
2017-11-30T04:10:43.959Z,43.70
2017-11-30T04:11:43.934Z,43.10
2017-11-30T04:12:43.908Z,44.80
2017-11-30T04:13:43.887Z,44.10
2017-11-30T04:14:43.866Z,42.80
2017-11-30T04:15:43.831Z,43.10
2017-11-30T04:16:43.809Z,43.80
2017-11-30T04:17:43.788Z,42.00
2017-11-30T04:18:43.781Z,42.20
2017-11-30T04:19:43.744Z,40.60
2017-11-30T04:20:43.713Z,41.20
2017-11-30T04:21:43.688Z,40.90
2017-11-30T04:22:43.667Z,40.50
2017-11-30T04:23:43.640Z,39.80
2017-11-30T04:24:43.634Z,40.60
2017-11-30T04:25:43.596Z,39.60
2017-11-30T04:26:43.570Z,40.60
2017-11-30T04:27:43.544Z,38.40
2017-11-30T04:28:43.534Z,37.40
2017-11-30T04:29:43.496Z,37.50
2017-11-30T04:30:43.608Z,38.50
2017-11-30T04:31:43.447Z,37.10
2017-11-30T04:32:43.424Z,37.00
2017-11-30T04:33:43.401Z,36.20
2017-11-30T04:34:43.431Z,37.40
2017-11-30T04:35:43.353Z,35.80
2017-11-30T04:36:43.327Z,34.70
2017-11-30T04:37:43.303Z,35.90
2017-11-30T04:38:43.278Z,36.40
2017-11-30T04:39:43.257Z,37.40
2017-11-30T04:40:43.229Z,36.90
2017-11-30T04:41:43.206Z,36.90
2017-11-30T04:42:43.184Z,36.00
2017-11-30T04:43:43.157Z,36.30
2017-11-30T04:44:43.132Z,36.90
2017-11-30T04:45:43.110Z,36.00
2017-11-30T04:46:43.085Z,36.40
2017-11-30T04:47:43.062Z,36.20
2017-11-30T04:48:43.035Z,36.50
2017-11-30T04:49:43.012Z,36.20
2017-11-30T04:50:42.988Z,35.20
2017-11-30T04:51:42.965Z,35.10
2017-11-30T04:52:42.942Z,36.00
2017-11-30T04:53:42.921Z,37.80
2017-11-30T04:54:42.900Z,37.20
2017-11-30T04:55:42.870Z,38.20
2017-11-30T04:56:42.844Z,36.90
2017-11-30T04:57:42.830Z,36.90
2017-11-30T04:58:42.797Z,37.20
2017-11-30T04:59:42.773Z,37.80
2017-11-30T05:00:42.745Z,37.40
2017-11-30T05:01:42.723Z,37.90
2017-11-30T05:02:42.694Z,39.80
2017-11-30T05:03:42.673Z,36.90
2017-11-30T05:04:42.649Z,36.70
2017-11-30T05:05:42.621Z,38.10
2017-11-30T05:06:42.600Z,38.50
2017-11-30T05:07:42.603Z,39.70
2017-11-30T05:08:42.552Z,39.80
2017-11-30T05:09:42.529Z,40.20
2017-11-30T05:10:42.501Z,39.30
2017-11-30T05:11:42.486Z,40.10
2017-11-30T05:12:42.452Z,41.10
2017-11-30T05:13:42.432Z,40.80
2017-11-30T05:14:42.404Z,41.50
2017-11-30T05:15:42.382Z,41.30
2017-11-30T05:16:42.357Z,41.90
2017-11-30T05:17:42.341Z,41.60
2017-11-30T05:18:42.317Z,43.00
2017-11-30T05:19:42.286Z,42.60
2017-11-30T05:20:42.257Z,40.70
2017-11-30T05:21:42.238Z,39.90
2017-11-30T05:22:42.209Z,42.40
2017-11-30T05:23:42.288Z,42.80
2017-11-30T05:24:42.162Z,41.80
2017-11-30T05:25:42.148Z,42.90
2017-11-30T05:26:42.116Z,40.00
2017-11-30T05:27:42.090Z,41.20
2017-11-30T05:28:42.065Z,40.70
2017-11-30T05:29:42.199Z,40.10
2017-11-30T05:30:42.019Z,40.60
2017-11-30T05:31:41.991Z,40.50
2017-11-30T05:32:41.969Z,40.50
2017-11-30T05:33:41.947Z,39.80
2017-11-30T05:34:41.921Z,40.30
2017-11-30T05:35:41.983Z,40.80
2017-11-30T05:36:41.876Z,42.00
2017-11-30T05:37:41.849Z,40.20
2017-11-30T05:38:41.826Z,41.90
2017-11-30T05:39:41.807Z,40.10
2017-11-30T05:40:41.778Z,41.30
2017-11-30T05:41:41.753Z,41.40
2017-11-30T05:42:41.742Z,40.50
2017-11-30T05:43:41.710Z,41.10
2017-11-30T05:44:41.681Z,42.00
2017-11-30T05:45:41.660Z,40.60
2017-11-30T05:46:41.662Z,43.00
2017-11-30T05:47:41.617Z,42.60
2017-11-30T05:48:41.584Z,43.50
2017-11-30T05:49:41.571Z,43.20
2017-11-30T05:50:41.535Z,43.50
2017-11-30T05:51:41.514Z,44.10
2017-11-30T05:52:41.485Z,43.60
2017-11-30T05:53:41.466Z,45.40
2017-11-30T05:54:41.439Z,42.50
2017-11-30T05:55:41.425Z,42.80
2017-11-30T05:56:41.392Z,43.50
2017-11-30T05:57:41.374Z,45.30
2017-11-30T05:58:41.348Z,45.20
2017-11-30T05:59:41.317Z,44.60
2017-11-30T06:00:41.294Z,44.30
2017-11-30T06:01:41.271Z,45.50
2017-11-30T06:02:41.243Z,44.90
2017-11-30T06:03:41.221Z,44.40
2017-11-30T06:04:41.198Z,44.50
2017-11-30T06:05:41.176Z,46.00
2017-11-30T06:06:41.158Z,44.80
2017-11-30T06:07:41.123Z,45.70
2017-11-30T06:08:41.101Z,46.90
2017-11-30T06:09:41.075Z,46.90
2017-11-30T06:10:41.049Z,45.30
2017-11-30T06:11:41.032Z,46.80
2017-11-30T06:12:41.005Z,45.00
2017-11-30T06:13:40.980Z,48.10
2017-11-30T06:14:40.955Z,49.20
2017-11-30T06:15:40.931Z,46.00
2017-11-30T06:16:40.914Z,47.30
2017-11-30T06:17:40.883Z,47.50
2017-11-30T06:18:40.861Z,46.90
2017-11-30T06:19:40.835Z,47.80
2017-11-30T06:20:40.819Z,45.50
2017-11-30T06:21:40.789Z,48.40
2017-11-30T06:22:40.761Z,47.30
2017-11-30T06:23:40.739Z,49.00
2017-11-30T06:24:40.715Z,47.20
2017-11-30T06:25:40.709Z,46.30
2017-11-30T06:26:40.669Z,47.50
2017-11-30T06:27:40.641Z,46.00
2017-11-30T06:28:40.620Z,48.40
2017-11-30T06:29:40.597Z,45.20
2017-11-30T06:30:40.612Z,46.20
2017-11-30T06:31:40.549Z,46.80
2017-11-30T06:32:40.519Z,47.00
2017-11-30T06:33:40.498Z,47.30
2017-11-30T06:34:40.499Z,46.80
2017-11-30T06:35:40.453Z,46.70
2017-11-30T06:36:40.426Z,46.50
2017-11-30T06:37:40.403Z,46.20
2017-11-30T06:38:40.382Z,48.70
2017-11-30T06:39:40.357Z,48.20
2017-11-30T06:40:40.394Z,48.30
2017-11-30T06:41:40.319Z,47.60
2017-11-30T06:42:40.283Z,47.70
2017-11-30T06:43:40.259Z,47.60
2017-11-30T06:44:40.310Z,48.90
2017-11-30T06:45:40.213Z,46.20
2017-11-30T06:46:40.227Z,47.70
2017-11-30T06:47:40.165Z,46.70
2017-11-30T06:48:40.140Z,47.70
2017-11-30T06:49:40.114Z,47.70
2017-11-30T06:50:40.097Z,45.20
2017-11-30T06:51:40.066Z,47.20
2017-11-30T06:52:40.045Z,49.30
2017-11-30T06:53:40.024Z,47.20
2017-11-30T06:54:39.997Z,46.20
2017-11-30T06:55:39.974Z,45.90
2017-11-30T06:56:39.951Z,45.00
2017-11-30T06:57:39.923Z,43.70
2017-11-30T06:58:39.900Z,46.10
2017-11-30T06:59:39.873Z,46.00
2017-11-30T07:00:39.858Z,43.70
2017-11-30T07:01:39.826Z,45.80
2017-11-30T07:02:39.803Z,46.10
2017-11-30T07:03:39.778Z,47.50
2017-11-30T07:04:39.755Z,46.90
2017-11-30T07:05:39.732Z,48.00
2017-11-30T07:06:39.712Z,47.50
2017-11-30T07:07:39.691Z,47.10
2017-11-30T07:08:39.663Z,48.00
2017-11-30T07:09:39.640Z,49.00
2017-11-30T07:10:39.616Z,48.00
2017-11-30T07:11:39.593Z,49.80
2017-11-30T07:12:39.566Z,47.70
2017-11-30T07:13:39.542Z,49.30
2017-11-30T07:14:39.523Z,48.50
2017-11-30T07:15:39.494Z,48.60
2017-11-30T07:16:39.472Z,49.10
2017-11-30T07:17:39.443Z,47.80
2017-11-30T07:18:39.422Z,48.50
2017-11-30T07:19:39.395Z,48.50
2017-11-30T07:20:39.383Z,49.20
2017-11-30T07:21:39.360Z,49.40
2017-11-30T07:22:39.328Z,50.10
2017-11-30T07:23:39.310Z,55.30
2017-11-30T07:24:39.288Z,50.50
2017-11-30T07:25:39.256Z,46.20
2017-11-30T07:26:39.234Z,49.70
2017-11-30T07:27:39.206Z,47.00
2017-11-30T07:28:39.182Z,45.10
2017-11-30T07:29:39.249Z,47.20
2017-11-30T07:30:39.141Z,48.90
2017-11-30T07:31:39.175Z,51.20
2017-11-30T07:32:39.089Z,50.60
2017-11-30T07:33:39.065Z,50.20
2017-11-30T07:34:39.042Z,47.70
2017-11-30T07:35:39.031Z,49.40
2017-11-30T07:36:38.992Z,49.10
2017-11-30T07:37:38.995Z,46.80
2017-11-30T07:38:38.948Z,49.70
2017-11-30T07:39:38.978Z,49.60
2017-11-30T07:40:38.923Z,52.60
2017-11-30T07:41:38.949Z,51.80
2017-11-30T07:42:38.850Z,52.50
2017-11-30T07:43:38.835Z,51.10
2017-11-30T07:44:38.808Z,51.20
2017-11-30T07:45:38.800Z,52.50
2017-11-30T07:46:38.759Z,52.20
2017-11-30T07:47:38.735Z,52.90
2017-11-30T07:48:38.707Z,49.80
2017-11-30T07:49:38.680Z,51.10
2017-11-30T07:50:38.661Z,51.60
2017-11-30T07:51:38.793Z,49.50
2017-11-30T07:52:38.611Z,49.40
2017-11-30T07:53:38.589Z,47.90
2017-11-30T07:54:38.579Z,50.10
2017-11-30T07:55:38.649Z,48.30
2017-11-30T07:56:38.515Z,46.60
2017-11-30T07:57:38.495Z,46.40
2017-11-30T07:58:38.469Z,47.70
2017-11-30T07:59:38.448Z,71.80
2017-11-30T08:00:38.420Z,47.30
2017-11-30T08:01:38.399Z,48.10
2017-11-30T08:02:38.374Z,47.80
2017-11-30T08:03:38.357Z,48.40
2017-11-30T08:04:38.328Z,47.60
2017-11-30T08:05:38.414Z,47.30
2017-11-30T08:06:38.287Z,47.00
2017-11-30T08:07:38.255Z,47.30
2017-11-30T08:08:38.234Z,48.10
2017-11-30T08:09:38.209Z,50.90
2017-11-30T08:10:38.184Z,48.50
2017-11-30T08:11:38.172Z,48.50
2017-11-30T08:12:38.197Z,47.50
2017-11-30T08:13:38.113Z,49.10
2017-11-30T08:14:38.093Z,48.20
2017-11-30T08:15:38.068Z,47.70
2017-11-30T08:16:38.042Z,47.10
2017-11-30T08:17:38.027Z,47.60
2017-11-30T08:18:37.995Z,50.80
2017-11-30T08:19:37.974Z,48.60
2017-11-30T08:20:37.956Z,50.60
2017-11-30T08:21:37.921Z,50.10
2017-11-30T08:22:37.901Z,50.00
2017-11-30T08:23:37.876Z,52.00
2017-11-30T08:24:37.861Z,50.70
2017-11-30T08:25:37.831Z,48.60
2017-11-30T08:26:37.808Z,46.80
2017-11-30T08:27:37.789Z,47.10
2017-11-30T08:28:37.757Z,47.60
2017-11-30T08:29:37.741Z,48.50
2017-11-30T08:30:37.710Z,48.20
2017-11-30T08:31:37.692Z,45.70
2017-11-30T08:32:37.662Z,43.80
2017-11-30T08:33:37.644Z,46.30
2017-11-30T08:34:37.613Z,45.60
2017-11-30T08:35:37.592Z,43.80
2017-11-30T08:36:37.580Z,42.60
2017-11-30T08:37:37.552Z,45.40
2017-11-30T08:38:37.565Z,45.50
2017-11-30T08:39:37.503Z,44.40
2017-11-30T08:40:37.479Z,43.20
2017-11-30T08:41:37.458Z,43.20
2017-11-30T08:42:37.439Z,43.90
2017-11-30T08:43:37.410Z,43.90
2017-11-30T08:44:37.378Z,43.00
2017-11-30T08:45:37.357Z,44.20
2017-11-30T08:46:37.389Z,44.30
2017-11-30T08:47:37.343Z,45.40
2017-11-30T08:48:37.291Z,44.20
2017-11-30T08:49:37.262Z,42.00
2017-11-30T08:50:37.252Z,42.10
2017-11-30T08:51:37.217Z,42.50
2017-11-30T08:52:37.192Z,43.30
2017-11-30T08:53:37.170Z,42.40
2017-11-30T08:54:37.149Z,43.30
2017-11-30T08:55:37.128Z,42.30
2017-11-30T08:56:37.151Z,41.70
2017-11-30T08:57:37.080Z,40.30
2017-11-30T08:58:37.060Z,40.80
2017-11-30T08:59:37.035Z,43.30
2017-11-30T09:00:37.032Z,40.80
2017-11-30T09:01:36.987Z,40.60
2017-11-30T09:02:37.067Z,40.20
2017-11-30T09:03:36.940Z,40.00
2017-11-30T09:04:36.916Z,40.00
2017-11-30T09:05:36.894Z,39.30
2017-11-30T09:06:37.006Z,38.80
2017-11-30T09:07:36.852Z,36.80
2017-11-30T09:08:36.826Z,36.40
2017-11-30T09:09:36.805Z,37.80
2017-11-30T09:10:36.789Z,38.20
2017-11-30T09:11:36.756Z,38.00
2017-11-30T09:12:36.736Z,38.40
2017-11-30T09:13:36.714Z,37.30
2017-11-30T09:14:36.722Z,36.20
2017-11-30T09:15:36.667Z,33.70
2017-11-30T09:16:36.670Z,35.90
2017-11-30T09:17:36.628Z,35.70
2017-11-30T09:18:36.599Z,36.00
2017-11-30T09:19:36.576Z,36.10
2017-11-30T09:20:36.554Z,36.60
2017-11-30T09:21:36.534Z,32.90
2017-11-30T09:22:36.511Z,32.10
2017-11-30T09:23:36.485Z,31.40
2017-11-30T09:24:36.469Z,33.40
2017-11-30T09:25:36.441Z,31.20
2017-11-30T09:26:36.416Z,33.60
2017-11-30T09:27:36.396Z,32.50
2017-11-30T09:28:36.372Z,33.90
2017-11-30T09:29:36.353Z,32.30
2017-11-30T09:30:36.327Z,33.00
2017-11-30T09:31:36.309Z,33.50
2017-11-30T09:32:36.288Z,31.70
2017-11-30T09:33:36.264Z,33.00
2017-11-30T09:34:36.237Z,31.20
2017-11-30T09:35:36.234Z,31.70
2017-11-30T09:36:36.194Z,31.20
2017-11-30T09:37:36.170Z,32.40
2017-11-30T09:38:36.148Z,33.30
2017-11-30T09:39:36.123Z,31.60
2017-11-30T09:40:36.108Z,31.30
2017-11-30T09:41:36.079Z,30.20
2017-11-30T09:42:36.056Z,30.60
2017-11-30T09:43:36.039Z,30.30
2017-11-30T09:44:36.010Z,33.00
2017-11-30T09:45:36.024Z,30.80
2017-11-30T09:46:35.969Z,28.90
2017-11-30T09:47:35.945Z,30.40
2017-11-30T09:48:35.921Z,31.80
2017-11-30T09:49:35.901Z,30.60
2017-11-30T09:50:35.882Z,30.70
2017-11-30T09:51:35.853Z,30.60
2017-11-30T09:52:35.831Z,30.30
2017-11-30T09:53:35.809Z,30.80
2017-11-30T09:54:35.797Z,31.10
2017-11-30T09:55:35.763Z,30.30
2017-11-30T09:56:35.741Z,29.20
2017-11-30T09:57:35.722Z,28.80
2017-11-30T09:58:35.698Z,28.50
2017-11-30T09:59:35.680Z,27.30
2017-11-30T10:00:35.650Z,27.90
2017-11-30T10:01:35.630Z,29.40
2017-11-30T10:02:35.607Z,28.40
2017-11-30T10:03:35.591Z,30.30
2017-11-30T10:04:35.572Z,30.70
2017-11-30T10:05:35.541Z,31.20
2017-11-30T10:06:35.518Z,29.30
2017-11-30T10:07:35.503Z,29.70
2017-11-30T10:08:35.478Z,29.30
2017-11-30T10:09:35.451Z,27.40
2017-11-30T10:10:35.433Z,29.00
2017-11-30T10:11:35.458Z,29.20
2017-11-30T10:12:35.381Z,30.20
2017-11-30T10:13:35.362Z,29.30
2017-11-30T10:14:35.339Z,29.50
2017-11-30T10:15:35.315Z,29.90
2017-11-30T10:16:35.299Z,30.00
2017-11-30T10:17:35.334Z,30.90
2017-11-30T10:18:35.247Z,29.70
2017-11-30T10:19:35.226Z,29.10
2017-11-30T10:20:35.206Z,29.10
2017-11-30T10:21:35.250Z,28.90
2017-11-30T10:22:35.158Z,29.40
2017-11-30T10:23:35.247Z,31.50
2017-11-30T10:24:35.123Z,30.50
2017-11-30T10:25:35.097Z,29.90
2017-11-30T10:26:35.074Z,30.90
2017-11-30T10:27:35.088Z,29.60
2017-11-30T10:28:35.024Z,31.20
2017-11-30T10:29:35.003Z,31.30
2017-11-30T10:30:34.988Z,31.90
2017-11-30T10:31:34.971Z,31.80
2017-11-30T10:32:34.937Z,30.20
2017-11-30T10:33:35.000Z,29.80
2017-11-30T10:34:34.887Z,30.30
2017-11-30T10:35:34.865Z,30.10
2017-11-30T10:36:34.845Z,31.40
2017-11-30T10:37:34.904Z,31.80
2017-11-30T10:38:34.808Z,31.20
2017-11-30T10:39:34.786Z,30.30
2017-11-30T10:40:34.755Z,30.60
2017-11-30T10:41:34.743Z,31.30
2017-11-30T10:42:34.711Z,29.90
2017-11-30T10:43:34.689Z,31.10
2017-11-30T10:44:34.665Z,30.20
2017-11-30T10:45:34.646Z,29.60
2017-11-30T10:46:34.620Z,29.20
2017-11-30T10:47:34.603Z,29.60
2017-11-30T10:48:34.576Z,30.50
2017-11-30T10:49:34.556Z,28.70
2017-11-30T10:50:34.534Z,30.00
2017-11-30T10:51:34.512Z,28.80
2017-11-30T10:52:34.485Z,29.10
2017-11-30T10:53:34.464Z,28.20
2017-11-30T10:54:34.444Z,29.30
2017-11-30T10:55:34.419Z,26.50
2017-11-30T10:56:34.401Z,29.30
2017-11-30T10:57:34.375Z,30.20
2017-11-30T10:58:34.353Z,28.80
2017-11-30T10:59:34.329Z,28.90
2017-11-30T11:00:34.310Z,30.20
2017-11-30T11:01:34.289Z,28.00
2017-11-30T11:02:34.262Z,27.50
2017-11-30T11:03:34.243Z,28.00
2017-11-30T11:04:34.219Z,30.50
2017-11-30T11:05:34.200Z,28.10
2017-11-30T11:06:34.210Z,27.60
2017-11-30T11:07:34.150Z,26.80
2017-11-30T11:08:34.131Z,26.30
2017-11-30T11:09:34.109Z,26.40
2017-11-30T11:10:34.087Z,27.00
2017-11-30T11:11:34.063Z,25.30
2017-11-30T11:12:34.047Z,35.40
2017-11-30T11:13:34.020Z,25.30
2017-11-30T11:14:33.998Z,21.20
2017-11-30T11:15:33.984Z,25.00
2017-11-30T11:16:33.952Z,24.80
2017-11-30T11:17:33.932Z,23.20
2017-11-30T11:18:33.912Z,22.90
2017-11-30T11:19:33.888Z,22.90
2017-11-30T11:20:33.864Z,22.60
2017-11-30T11:21:33.842Z,22.70
2017-11-30T11:22:33.835Z,22.30
2017-11-30T11:23:33.799Z,22.30
2017-11-30T11:24:33.775Z,22.70
2017-11-30T11:25:33.769Z,22.90
2017-11-30T11:26:33.734Z,23.10
2017-11-30T11:27:33.708Z,21.70
2017-11-30T11:28:33.690Z,23.30
2017-11-30T11:29:33.668Z,22.50
2017-11-30T11:30:33.653Z,21.60
2017-11-30T11:31:33.623Z,21.80
2017-11-30T11:32:33.601Z,21.30
2017-11-30T11:33:33.577Z,20.60
2017-11-30T11:34:33.553Z,21.70
2017-11-30T11:35:33.533Z,21.40
2017-11-30T11:36:33.515Z,20.70
2017-11-30T11:37:33.490Z,21.50
2017-11-30T11:38:33.477Z,20.40
2017-11-30T11:39:33.447Z,20.40
2017-11-30T11:40:33.426Z,21.30
2017-11-30T11:41:33.403Z,21.10
2017-11-30T11:42:33.417Z,19.80
2017-11-30T11:43:33.362Z,20.20
2017-11-30T11:44:33.335Z,20.70
2017-11-30T11:45:33.315Z,20.90
2017-11-30T11:46:33.292Z,18.50
2017-11-30T11:47:33.270Z,18.80
2017-11-30T11:48:33.303Z,19.40
2017-11-30T11:49:33.226Z,18.60
2017-11-30T11:50:33.204Z,19.50
2017-11-30T11:51:33.187Z,18.90
2017-11-30T11:52:33.201Z,18.70
2017-11-30T11:53:33.141Z,18.70
2017-11-30T11:54:33.183Z,17.80
2017-11-30T11:55:33.115Z,18.30
2017-11-30T11:56:33.082Z,17.40
2017-11-30T11:57:33.056Z,17.00
2017-11-30T11:58:33.105Z,16.90
2017-11-30T11:59:33.010Z,17.10
2017-11-30T12:00:32.985Z,17.20
2017-11-30T12:01:32.971Z,16.30
2017-11-30T12:02:32.941Z,15.00
2017-11-30T12:03:32.931Z,16.20
2017-11-30T12:04:32.913Z,16.70
2017-11-30T12:05:32.880Z,14.80
2017-11-30T12:06:32.859Z,15.30
2017-11-30T12:07:32.836Z,14.30
2017-11-30T12:08:32.921Z,16.00
2017-11-30T12:09:32.802Z,15.80
2017-11-30T12:10:32.777Z,15.90
2017-11-30T12:11:32.749Z,15.60
2017-11-30T12:12:32.744Z,15.80
2017-11-30T12:13:32.706Z,16.20
2017-11-30T12:14:32.693Z,17.00
2017-11-30T12:15:32.662Z,16.70
2017-11-30T12:16:32.645Z,16.60
2017-11-30T12:17:32.628Z,15.90
2017-11-30T12:18:32.601Z,16.40
2017-11-30T12:19:32.593Z,16.70
2017-11-30T12:20:32.569Z,18.00
2017-11-30T12:21:32.538Z,17.20
2017-11-30T12:22:32.511Z,15.50
2017-11-30T12:23:32.492Z,17.50
2017-11-30T12:24:32.473Z,16.10
2017-11-30T12:25:32.459Z,15.70
2017-11-30T12:26:32.430Z,15.60
2017-11-30T12:27:32.413Z,15.20
2017-11-30T12:28:32.386Z,14.90
2017-11-30T12:29:32.380Z,13.50
2017-11-30T12:30:32.345Z,14.30
2017-11-30T12:31:32.320Z,14.90
2017-11-30T12:32:32.298Z,14.50
2017-11-30T12:33:32.281Z,15.60
2017-11-30T12:34:32.261Z,14.70
2017-11-30T12:35:32.256Z,14.20
2017-11-30T12:36:32.217Z,13.90
2017-11-30T12:37:32.194Z,13.20
2017-11-30T12:38:32.174Z,13.90
2017-11-30T12:39:32.150Z,14.30
2017-11-30T12:40:32.128Z,15.30
2017-11-30T12:41:32.108Z,13.60
2017-11-30T12:42:32.093Z,12.70
2017-11-30T12:43:32.065Z,13.40
2017-11-30T12:44:32.039Z,13.00
2017-11-30T12:45:32.019Z,12.40
2017-11-30T12:46:31.996Z,11.80
2017-11-30T12:47:31.976Z,13.70
2017-11-30T12:48:31.953Z,12.80
2017-11-30T12:49:31.933Z,12.50
2017-11-30T12:50:31.922Z,12.00
2017-11-30T12:51:31.889Z,12.50
2017-11-30T12:52:31.873Z,12.10